Big Ready, Kentucky
Current Conditions -  °F | °C
As of 2:53 PM on Thursday 23 Oct 2014 (Local Time) from KBWG Reporting Station
Clear Clear  
Wind Chill: 63°   Ceiling: Unl
Heat Index: 63°   Visibility: 10mi
Dew Point: 40°   Wind: 5mph
Humidity: 43%   Direction: NA
Pressure: 30.14"   Gusts: NA
Location:  37.2302°N, 86.4364°W
Report Text: KBWG 231953Z AUTO VRB04KT 10SM CLR 17/04 A3014 RMK AO2 SLP205 T01720044
Loading
Personal Weather Stations






























Interactive Weather Map
Tropical Storm Tracking
New forecast layout! Learn more

10-Day Weather Forecast

Advertisements
Track Severe Weather on mobile